Time;durP1;ratioP1;P1;durP2;ratioP2;P2;SDS_P1;SDS_P2;PMS_P1;PMS_P2;Temp;Humidity;BMP_temperature;BMP_pressure;BME280_temperature;BME280_humidity;BME280_pressure;Samples;Min_cycle;Max_cycle;Signal;HPM_P1;HPM_P2
2023/08/26 00:01:52;;;;;;;30.83;22.13;;;;;;;;;;5092796;28;20016;-69
2023/08/26 00:04:20;;;;;;;27.70;20.45;;;;;;;;;;5092637;28;20503;-69
2023/08/26 00:06:46;;;;;;;25.88;21.55;;;;;;;;;;5092423;28;20063;-69
2023/08/26 00:09:12;;;;;;;29.13;18.10;;;;;;;;;;5092171;28;20020;-70
2023/08/26 00:11:38;;;;;;;26.20;19.92;;;;;;;;;;5092744;28;20035;-70
2023/08/26 00:14:04;;;;;;;26.70;18.52;;;;;;;;;;5092466;28;20470;-70
2023/08/26 00:16:30;;;;;;;25.17;18.38;;;;;;;;;;5092139;28;20046;-69
2023/08/26 00:18:59;;;;;;;22.58;19.17;;;;;;;;;;5092394;28;20078;-70
2023/08/26 00:21:25;;;;;;;28.40;19.17;;;;;;;;;;5092300;28;20032;-69
2023/08/26 00:23:51;;;;;;;23.92;20.35;;;;;;;;;;5092008;28;20032;-70
2023/08/26 00:26:17;;;;;;;28.55;20.35;;;;;;;;;;5092161;28;20047;-70
2023/08/26 00:28:44;;;;;;;24.63;19.63;;;;;;;;;;5092229;28;20020;-70
2023/08/26 00:31:10;;;;;;;25.23;19.42;;;;;;;;;;5092433;28;20078;-69
2023/08/26 00:33:36;;;;;;;27.63;22.05;;;;;;;;;;5092350;28;20028;-70
2023/08/26 00:36:02;;;;;;;22.20;18.27;;;;;;;;;;5092340;28;20028;-69
2023/08/26 00:38:28;;;;;;;25.73;20.35;;;;;;;;;;5092425;28;20024;-70
2023/08/26 00:40:54;;;;;;;23.55;18.05;;;;;;;;;;5091822;28;20032;-70
2023/08/26 00:43:20;;;;;;;24.85;17.65;;;;;;;;;;5091912;28;20048;-70
2023/08/26 00:45:47;;;;;;;21.38;15.15;;;;;;;;;;5091902;28;20093;-70
2023/08/26 00:48:13;;;;;;;18.52;12.38;;;;;;;;;;5090393;28;20036;-69
2023/08/26 00:50:40;;;;;;;16.42;13.30;;;;;;;;;;5091917;28;20020;-70
2023/08/26 00:53:10;;;;;;;20.50;14.82;;;;;;;;;;5073782;28;20031;-71
2023/08/26 00:55:36;;;;;;;;;;;;;;;;;;5091849;28;20032;-70
2023/08/26 00:58:02;;;;;;;25.05;13.93;;;;;;;;;;5092107;28;19981;-71
2023/08/26 01:00:29;;;;;;;21.08;17.00;;;;;;;;;;5091286;28;20374;-70
2023/08/26 01:02:55;;;;;;;18.98;16.45;;;;;;;;;;5073538;28;20467;-71
2023/08/26 01:05:21;;;;;;;18.27;15.63;;;;;;;;;;5090667;28;20055;-70
2023/08/26 01:07:47;;;;;;;19.77;14.73;;;;;;;;;;5091658;28;20726;-71
2023/08/26 01:10:13;;;;;;;21.52;15.50;;;;;;;;;;5073132;28;20024;-71
2023/08/26 01:12:40;;;;;;;21.92;15.00;;;;;;;;;;5091241;28;20035;-71
2023/08/26 01:15:08;;;;;;;18.85;14.15;;;;;;;;;;5091333;28;20501;-71
2023/08/26 01:17:35;;;;;;;20.85;15.50;;;;;;;;;;5090929;28;20104;-70
2023/08/26 01:20:03;;;;;;;16.45;12.68;;;;;;;;;;5091321;28;20028;-70
2023/08/26 01:22:30;;;;;;;18.50;12.15;;;;;;;;;;5090844;28;20059;-70
2023/08/26 01:24:56;;;;;;;15.38;10.88;;;;;;;;;;5090879;28;20115;-71
2023/08/26 01:27:22;;;;;;;15.13;9.73;;;;;;;;;;5091078;28;20035;-70
2023/08/26 01:29:48;;;;;;;16.80;11.02;;;;;;;;;;5091100;28;20020;-70
2023/08/26 01:32:28;;;;;;;16.83;12.32;;;;;;;;;;5090759;28;20032;-70
2023/08/26 01:34:56;;;;;;;17.23;13.15;;;;;;;;;;5090974;28;20131;-70
2023/08/26 01:37:24;;;;;;;20.60;12.77;;;;;;;;;;5090914;28;20083;-70
2023/08/26 01:39:52;;;;;;;17.85;13.02;;;;;;;;;;5091136;28;20020;-70
2023/08/26 01:42:19;;;;;;;17.25;13.25;;;;;;;;;;5090689;28;20024;-72
2023/08/26 01:44:45;;;;;;;17.95;12.77;;;;;;;;;;5090667;28;20032;-70
2023/08/26 01:47:11;;;;;;;15.70;10.63;;;;;;;;;;5090544;28;20028;-71
2023/08/26 01:49:37;;;;;;;16.95;11.13;;;;;;;;;;5090621;28;20111;-70
2023/08/26 01:52:03;;;;;;;14.35;9.85;;;;;;;;;;5090599;28;20107;-70
2023/08/26 01:54:30;;;;;;;19.10;10.98;;;;;;;;;;5090311;28;20162;-69
2023/08/26 01:56:56;;;;;;;15.30;9.82;;;;;;;;;;5090645;28;20039;-70
2023/08/26 01:59:22;;;;;;;17.02;10.70;;;;;;;;;;5090338;28;20108;-70
2023/08/26 02:01:48;;;;;;;20.75;10.60;;;;;;;;;;5090279;28;20114;-70
2023/08/26 02:04:14;;;;;;;14.23;10.77;;;;;;;;;;5089796;28;20028;-70
2023/08/26 02:06:40;;;;;;;15.82;11.15;;;;;;;;;;5090155;28;20968;-70
2023/08/26 02:09:09;;;;;;;21.13;12.32;;;;;;;;;;5089952;28;20024;-71
2023/08/26 02:11:35;;;;;;;18.92;13.50;;;;;;;;;;5090076;28;20024;-71
2023/08/26 02:14:01;;;;;;;19.73;12.25;;;;;;;;;;5090110;28;20031;-71
2023/08/26 02:16:27;;;;;;;18.38;10.68;;;;;;;;;;5072313;28;20378;-70
2023/08/26 02:18:53;;;;;;;18.25;12.50;;;;;;;;;;5090014;28;20027;-71
2023/08/26 02:21:19;;;;;;;16.02;11.27;;;;;;;;;;5089652;28;20024;-70
2023/08/26 02:23:46;;;;;;;17.30;11.55;;;;;;;;;;5072158;28;20043;-71
2023/08/26 02:26:12;;;;;;;17.17;10.63;;;;;;;;;;5071803;28;20044;-69
2023/08/26 02:28:38;;;;;;;17.02;11.18;;;;;;;;;;5089788;28;20074;-69
2023/08/26 02:31:04;;;;;;;18.83;11.23;;;;;;;;;;5090188;28;20035;-70
2023/08/26 02:33:30;;;;;;;13.77;9.25;;;;;;;;;;5089433;28;20053;-70
2023/08/26 02:35:56;;;;;;;20.40;10.18;;;;;;;;;;5089663;28;20028;-70
2023/08/26 02:38:22;;;;;;;15.27;10.15;;;;;;;;;;5089835;28;20024;-68
2023/08/26 02:40:55;;;;;;;17.23;10.27;;;;;;;;;;5089697;28;20024;-69
2023/08/26 02:43:21;;;;;;;14.65;7.75;;;;;;;;;;5089592;28;20034;-69
2023/08/26 02:45:54;;;;;;;12.25;8.35;;;;;;;;;;5089861;28;20122;-68
2023/08/26 02:48:21;;;;;;;12.25;8.38;;;;;;;;;;5089595;28;20028;-68
2023/08/26 02:50:47;;;;;;;17.10;10.32;;;;;;;;;;5089733;28;20080;-69
2023/08/26 02:53:14;;;;;;;15.25;9.50;;;;;;;;;;5089101;28;20056;-68
2023/08/26 02:55:40;;;;;;;16.10;9.25;;;;;;;;;;5089944;28;20020;-68
2023/08/26 02:58:06;;;;;;;16.35;9.48;;;;;;;;;;5089623;28;20024;-69
2023/08/26 03:00:35;;;;;;;20.63;9.68;;;;;;;;;;5071272;28;20020;-69
2023/08/26 03:03:01;;;;;;;19.10;8.25;;;;;;;;;;5071347;28;20077;-69
2023/08/26 03:05:27;;;;;;;22.05;8.90;;;;;;;;;;5088370;28;20417;-69
2023/08/26 03:07:53;;;;;;;15.45;8.55;;;;;;;;;;5071318;28;20031;-68
2023/08/26 03:10:19;;;;;;;15.90;9.20;;;;;;;;;;5089343;28;20035;-69
2023/08/26 03:12:45;;;;;;;18.00;9.63;;;;;;;;;;5089344;28;20024;-69
2023/08/26 03:15:11;;;;;;;14.77;9.43;;;;;;;;;;5088980;28;20071;-68
2023/08/26 03:17:37;;;;;;;16.95;9.07;;;;;;;;;;5089199;28;20064;-69
2023/08/26 03:20:05;;;;;;;17.27;9.93;;;;;;;;;;5089006;28;20079;-68
2023/08/26 03:22:31;;;;;;;14.75;9.07;;;;;;;;;;5089256;28;20020;-69
2023/08/26 03:24:57;;;;;;;14.88;8.70;;;;;;;;;;5070610;28;20032;-69
2023/08/26 03:27:24;;;;;;;14.20;8.73;;;;;;;;;;5070836;28;20111;-69
2023/08/26 03:29:50;;;;;;;18.42;9.07;;;;;;;;;;5088963;28;20024;-69
2023/08/26 03:32:16;;;;;;;17.15;9.10;;;;;;;;;;5089054;28;20024;-69
2023/08/26 03:34:43;;;;;;;20.50;9.25;;;;;;;;;;5071441;28;20110;-69
2023/08/26 03:37:08;;;;;;;13.35;7.90;;;;;;;;;;5089050;28;20126;-69
2023/08/26 03:39:35;;;;;;;18.23;8.40;;;;;;;;;;5088775;28;20038;-69
2023/08/26 03:42:01;;;;;;;14.95;9.18;;;;;;;;;;5088854;28;20073;-68
2023/08/26 03:44:27;;;;;;;14.52;7.72;;;;;;;;;;5070745;28;20106;-68
2023/08/26 03:46:53;;;;;;;17.23;8.82;;;;;;;;;;5089142;28;20076;-68
2023/08/26 03:49:19;;;;;;;15.43;7.65;;;;;;;;;;5088979;28;20401;-69
2023/08/26 03:51:45;;;;;;;13.95;8.48;;;;;;;;;;5089028;28;20020;-69
2023/08/26 03:54:11;;;;;;;18.20;8.70;;;;;;;;;;5088600;28;20031;-69
2023/08/26 03:56:37;;;;;;;14.25;8.45;;;;;;;;;;5088744;28;20076;-70
2023/08/26 03:59:04;;;;;;;11.80;7.45;;;;;;;;;;5088870;28;20024;-70
2023/08/26 04:01:31;;;;;;;15.65;8.27;;;;;;;;;;5088715;28;20537;-70
2023/08/26 04:03:57;;;;;;;13.13;8.63;;;;;;;;;;5088947;28;20055;-70
2023/08/26 04:06:23;;;;;;;18.08;8.88;;;;;;;;;;5070616;28;20076;-70
2023/08/26 04:08:49;;;;;;;14.35;8.23;;;;;;;;;;5088509;28;20032;-70
2023/08/26 04:11:17;;;;;;;13.80;7.22;;;;;;;;;;5089012;28;20027;-69
2023/08/26 04:13:45;;;;;;;14.93;7.20;;;;;;;;;;5088804;28;20070;-69
2023/08/26 04:16:11;;;;;;;16.35;8.55;;;;;;;;;;5088338;28;20478;-69
2023/08/26 04:18:37;;;;;;;12.98;7.68;;;;;;;;;;5088823;28;20032;-68
2023/08/26 04:21:03;;;;;;;12.13;7.13;;;;;;;;;;5088168;28;20032;-70
2023/08/26 04:23:30;;;;;;;15.20;8.75;;;;;;;;;;5088098;28;20082;-69
2023/08/26 04:26:02;;;;;;;15.00;7.70;;;;;;;;;;5092112;28;20492;-69
2023/08/26 04:28:29;;;;;;;11.85;7.47;;;;;;;;;;5091976;28;20359;-68
2023/08/26 04:30:55;;;;;;;15.05;8.15;;;;;;;;;;5092353;28;20055;-68
2023/08/26 04:33:21;;;;;;;16.92;8.93;;;;;;;;;;5090843;28;20103;-70
2023/08/26 04:35:47;;;;;;;17.08;6.80;;;;;;;;;;5073963;28;20101;-69
2023/08/26 04:38:13;;;;;;;15.07;7.75;;;;;;;;;;5092014;28;20024;-68
2023/08/26 04:40:41;;;;;;;12.73;7.45;;;;;;;;;;5092256;28;20024;-69
2023/08/26 04:43:08;;;;;;;21.83;7.82;;;;;;;;;;5074391;28;20047;-69
2023/08/26 04:45:34;;;;;;;13.45;7.57;;;;;;;;;;5092029;28;20046;-68
2023/08/26 04:48:01;;;;;;;13.30;6.60;;;;;;;;;;5091898;28;20539;-68
2023/08/26 04:50:27;;;;;;;10.48;5.95;;;;;;;;;;5073337;28;20036;-68
2023/08/26 04:52:53;;;;;;;10.52;6.57;;;;;;;;;;5091989;28;20020;-68
2023/08/26 04:55:19;;;;;;;13.43;6.97;;;;;;;;;;5091602;28;20103;-69
2023/08/26 04:57:45;;;;;;;14.18;6.30;;;;;;;;;;5091561;28;20021;-69
2023/08/26 05:00:11;;;;;;;18.58;7.95;;;;;;;;;;5091465;28;20028;-69
2023/08/26 05:02:41;;;;;;;8.98;5.90;;;;;;;;;;5073434;28;20028;-69
2023/08/26 05:05:07;;;;;;;13.73;6.68;;;;;;;;;;5090925;28;20056;-69
2023/08/26 05:07:33;;;;;;;14.02;5.88;;;;;;;;;;5091665;28;20031;-69
2023/08/26 05:09:59;;;;;;;12.88;6.07;;;;;;;;;;5091105;28;20028;-69
2023/08/26 05:12:26;;;;;;;12.38;5.65;;;;;;;;;;5091376;28;20043;-68
2023/08/26 05:14:52;;;;;;;10.57;4.65;;;;;;;;;;5090872;28;20546;-68
2023/08/26 05:17:18;;;;;;;10.77;6.05;;;;;;;;;;5091044;28;20020;-68
2023/08/26 05:19:44;;;;;;;12.07;4.93;;;;;;;;;;5092173;28;20445;-68
2023/08/26 05:22:10;;;;;;;13.50;5.75;;;;;;;;;;5091480;28;20032;-68
2023/08/26 05:24:36;;;;;;;13.55;5.85;;;;;;;;;;5090872;28;20137;-68
2023/08/26 05:27:03;;;;;;;12.20;5.97;;;;;;;;;;5091032;28;20024;-68
2023/08/26 05:29:29;;;;;;;9.25;4.88;;;;;;;;;;5090978;28;20021;-68
2023/08/26 05:31:55;;;;;;;15.20;4.93;;;;;;;;;;5090866;28;20080;-69
2023/08/26 05:34:21;;;;;;;10.93;4.90;;;;;;;;;;5090954;28;20039;-68
2023/08/26 05:36:47;;;;;;;9.75;4.55;;;;;;;;;;5090758;28;20051;-69
2023/08/26 05:39:13;;;;;;;10.57;4.80;;;;;;;;;;5091008;28;20357;-68
2023/08/26 05:41:39;;;;;;;10.18;4.75;;;;;;;;;;5072818;28;20032;-68
2023/08/26 05:44:06;;;;;;;11.43;4.53;;;;;;;;;;5091170;28;20024;-68
2023/08/26 05:46:32;;;;;;;9.55;4.10;;;;;;;;;;5072712;28;20161;-68
2023/08/26 05:48:58;;;;;;;11.40;4.80;;;;;;;;;;5090379;28;20016;-69
2023/08/26 05:51:24;;;;;;;13.82;4.55;;;;;;;;;;5090220;28;20090;-69
2023/08/26 05:53:50;;;;;;;14.45;4.70;;;;;;;;;;5090735;28;20021;-69
2023/08/26 05:56:17;;;;;;;12.77;5.07;;;;;;;;;;5090701;28;20052;-69
2023/08/26 05:58:43;;;;;;;7.35;4.28;;;;;;;;;;5090521;28;20103;-67
2023/08/26 06:01:09;;;;;;;9.65;3.97;;;;;;;;;;5089926;28;20426;-68
2023/08/26 06:03:35;;;;;;;9.27;3.78;;;;;;;;;;5090616;28;20020;-68
2023/08/26 06:06:03;;;;;;;10.93;5.45;;;;;;;;;;5090271;28;20413;-68
2023/08/26 06:08:29;;;;;;;11.18;4.80;;;;;;;;;;5090497;28;20497;-68
2023/08/26 06:10:56;;;;;;;8.90;4.72;;;;;;;;;;5089921;28;20021;-68
2023/08/26 06:13:22;;;;;;;8.73;4.47;;;;;;;;;;5089768;28;20045;-69
2023/08/26 06:15:58;;;;;;;11.05;4.32;;;;;;;;;;5089909;28;20864;-69
2023/08/26 06:18:24;;;;;;;13.10;4.28;;;;;;;;;;5089851;28;20023;-68
2023/08/26 06:20:50;;;;;;;7.60;2.95;;;;;;;;;;5089271;28;20070;-69
2023/08/26 06:23:17;;;;;;;11.00;4.60;;;;;;;;;;5089574;28;20050;-68
2023/08/26 06:25:56;;;;;;;10.45;4.00;;;;;;;;;;5089820;28;20505;-68
2023/08/26 06:28:23;;;;;;;11.25;4.07;;;;;;;;;;5089894;28;20027;-68
2023/08/26 06:30:49;;;;;;;12.00;4.75;;;;;;;;;;5089273;28;20227;-68
2023/08/26 06:33:15;;;;;;;10.43;4.00;;;;;;;;;;5089709;28;20386;-68
2023/08/26 06:35:41;;;;;;;9.18;3.58;;;;;;;;;;5089639;28;20024;-69
2023/08/26 06:38:08;;;;;;;12.57;4.47;;;;;;;;;;5089316;28;20063;-67
2023/08/26 06:40:34;;;;;;;9.52;3.97;;;;;;;;;;5089684;28;20028;-69
2023/08/26 06:43:03;;;;;;;7.68;3.90;;;;;;;;;;5089597;28;20032;-69
2023/08/26 06:45:30;;;;;;;10.65;4.45;;;;;;;;;;5089247;28;20028;-68
2023/08/26 06:47:56;;;;;;;9.65;4.50;;;;;;;;;;5088275;28;20051;-69
2023/08/26 06:50:23;;;;;;;13.43;3.45;;;;;;;;;;5089397;28;20081;-69
2023/08/26 06:52:49;;;;;;;8.00;2.42;;;;;;;;;;5089376;28;20020;-69
2023/08/26 06:55:15;;;;;;;10.45;2.00;;;;;;;;;;5089492;28;20016;-70
2023/08/26 06:57:41;;;;;;;8.07;2.30;;;;;;;;;;5089703;28;20106;-70
2023/08/26 07:00:10;;;;;;;6.63;2.50;;;;;;;;;;5089173;28;20028;-69
2023/08/26 07:02:36;;;;;;;6.82;3.03;;;;;;;;;;5089130;28;20020;-71
2023/08/26 07:05:03;;;;;;;9.77;1.90;;;;;;;;;;5070828;28;20044;-69
2023/08/26 07:07:32;;;;;;;8.80;3.40;;;;;;;;;;5089148;28;20152;-68
2023/08/26 07:09:58;;;;;;;9.45;3.70;;;;;;;;;;5071084;28;20670;-71
2023/08/26 07:12:24;;;;;;;7.38;3.00;;;;;;;;;;5089520;28;20089;-70
2023/08/26 07:14:50;;;;;;;5.50;2.53;;;;;;;;;;5089301;28;20024;-70
2023/08/26 07:17:17;;;;;;;11.45;3.17;;;;;;;;;;5089064;28;20474;-70
2023/08/26 07:19:44;;;;;;;5.15;2.55;;;;;;;;;;5089304;28;20032;-69
2023/08/26 07:22:10;;;;;;;6.95;3.42;;;;;;;;;;5089405;28;20016;-70
2023/08/26 07:24:37;;;;;;;6.38;2.53;;;;;;;;;;5089240;28;20064;-71
2023/08/26 07:27:03;;;;;;;7.93;3.03;;;;;;;;;;5069937;28;20035;-69
2023/08/26 07:29:31;;;;;;;8.80;3.20;;;;;;;;;;5089038;28;20054;-69
2023/08/26 07:31:57;;;;;;;9.23;3.03;;;;;;;;;;5070687;28;20535;-70
2023/08/26 07:34:23;;;;;;;8.07;2.20;;;;;;;;;;5089691;28;20024;-69
2023/08/26 07:36:50;;;;;;;6.32;2.20;;;;;;;;;;5089480;28;20032;-69
2023/08/26 07:39:16;;;;;;;5.53;2.60;;;;;;;;;;5071146;28;20031;-70
2023/08/26 07:41:42;;;;;;;6.10;2.17;;;;;;;;;;5089204;28;20028;-69
2023/08/26 07:44:08;;;;;;;5.78;2.38;;;;;;;;;;5088809;28;20020;-70
2023/08/26 07:46:34;;;;;;;6.55;2.15;;;;;;;;;;5088779;28;20161;-69
2023/08/26 07:49:00;;;;;;;6.75;2.67;;;;;;;;;;5088840;28;20486;-69
2023/08/26 07:51:26;;;;;;;6.20;2.60;;;;;;;;;;5089068;28;20028;-69
2023/08/26 07:53:52;;;;;;;6.55;2.25;;;;;;;;;;5088864;28;20021;-69
2023/08/26 07:56:18;;;;;;;6.68;2.00;;;;;;;;;;5088604;28;20024;-70
2023/08/26 07:58:44;;;;;;;9.25;2.67;;;;;;;;;;5091481;28;20051;-69
2023/08/26 08:01:10;;;;;;;6.90;2.10;;;;;;;;;;5092926;28;20028;-68
2023/08/26 08:03:36;;;;;;;4.53;1.60;;;;;;;;;;5092483;28;20024;-69
2023/08/26 08:06:02;;;;;;;7.15;2.10;;;;;;;;;;5092034;28;20105;-69
2023/08/26 08:08:28;;;;;;;7.20;2.15;;;;;;;;;;5072624;28;20063;-69
2023/08/26 08:10:55;;;;;;;7.50;1.70;;;;;;;;;;5092058;28;20024;-71
2023/08/26 08:13:21;;;;;;;6.38;1.13;;;;;;;;;;5092547;28;20497;-69
2023/08/26 08:15:47;;;;;;;6.30;1.38;;;;;;;;;;5092664;28;20024;-70
2023/08/26 08:18:13;;;;;;;4.72;1.80;;;;;;;;;;5073945;28;20020;-68
2023/08/26 08:20:39;;;;;;;6.95;2.08;;;;;;;;;;5092382;28;20024;-70
2023/08/26 08:23:05;;;;;;;7.53;2.17;;;;;;;;;;5092850;28;20020;-70
2023/08/26 08:25:32;;;;;;;7.38;2.78;;;;;;;;;;5092545;28;20089;-68
2023/08/26 08:27:58;;;;;;;6.28;2.03;;;;;;;;;;5091940;28;20039;-69
2023/08/26 08:30:24;;;;;;;6.18;2.15;;;;;;;;;;5092142;28;20032;-68
2023/08/26 08:32:50;;;;;;;7.28;1.90;;;;;;;;;;5091857;28;20054;-69
2023/08/26 08:35:16;;;;;;;5.15;1.70;;;;;;;;;;5091953;28;20032;-68
2023/08/26 08:37:42;;;;;;;5.93;1.67;;;;;;;;;;5092135;28;20020;-68
2023/08/26 08:40:08;;;;;;;4.38;1.98;;;;;;;;;;5091877;28;20039;-68
2023/08/26 08:42:35;;;;;;;4.57;1.45;;;;;;;;;;5092016;28;20016;-68
2023/08/26 08:45:03;;;;;;;4.28;1.35;;;;;;;;;;5091845;28;20486;-67
2023/08/26 08:47:30;;;;;;;6.53;1.85;;;;;;;;;;5091601;28;20104;-66
2023/08/26 08:49:57;;;;;;;3.28;1.10;;;;;;;;;;5091892;28;20035;-67
2023/08/26 08:52:25;;;;;;;4.68;1.67;;;;;;;;;;5091612;28;20462;-67
2023/08/26 08:54:51;;;;;;;5.45;1.45;;;;;;;;;;5091498;28;20035;-68
2023/08/26 08:57:20;;;;;;;2.67;1.05;;;;;;;;;;5091487;28;20038;-67
2023/08/26 08:59:47;;;;;;;6.55;1.95;;;;;;;;;;5091941;28;20020;-68
2023/08/26 09:02:13;;;;;;;3.78;1.40;;;;;;;;;;5091957;28;20024;-68
2023/08/26 09:04:39;;;;;;;5.55;1.30;;;;;;;;;;5091084;28;20024;-68
2023/08/26 09:07:07;;;;;;;6.47;1.70;;;;;;;;;;5091391;28;20040;-68
2023/08/26 09:09:33;;;;;;;7.50;2.10;;;;;;;;;;5090650;28;20056;-68
2023/08/26 09:12:01;;;;;;;4.40;1.10;;;;;;;;;;5073380;28;20415;-68
2023/08/26 09:14:27;;;;;;;8.98;1.65;;;;;;;;;;5091491;28;20024;-67
2023/08/26 09:16:56;;;;;;;8.93;1.88;;;;;;;;;;5091293;28;20059;-68
2023/08/26 09:19:22;;;;;;;6.53;1.50;;;;;;;;;;5090742;28;20470;-69
2023/08/26 09:21:49;;;;;;;3.67;1.02;;;;;;;;;;5073470;28;20417;-68
2023/08/26 09:24:16;;;;;;;7.65;1.52;;;;;;;;;;5091261;28;20028;-67
2023/08/26 09:26:58;;;;;;;5.35;1.40;;;;;;;;;;5091233;28;20160;-68
2023/08/26 09:29:25;;;;;;;6.47;1.23;;;;;;;;;;5090907;28;20027;-68
2023/08/26 09:31:55;;;;;;;5.35;1.40;;;;;;;;;;5091226;28;20020;-68
2023/08/26 09:34:25;;;;;;;3.45;1.13;;;;;;;;;;5090905;28;20024;-69
2023/08/26 09:36:51;;;;;;;7.35;1.40;;;;;;;;;;5090853;28;20031;-68
2023/08/26 09:39:17;;;;;;;5.15;1.38;;;;;;;;;;5090548;28;20490;-69
2023/08/26 09:41:44;;;;;;;5.22;1.10;;;;;;;;;;5091127;28;20035;-68
2023/08/26 09:44:10;;;;;;;5.35;1.45;;;;;;;;;;5090991;28;20032;-68
2023/08/26 09:46:37;;;;;;;7.05;1.63;;;;;;;;;;5090657;28;20036;-68
2023/08/26 09:49:03;;;;;;;4.47;1.65;;;;;;;;;;5090689;28;20020;-69
2023/08/26 09:51:30;;;;;;;4.18;1.42;;;;;;;;;;5091469;28;20099;-68
2023/08/26 09:53:56;;;;;;;7.50;1.63;;;;;;;;;;5090550;28;20028;-68
2023/08/26 09:56:23;;;;;;;5.35;1.38;;;;;;;;;;5090861;28;20027;-68
2023/08/26 09:58:49;;;;;;;4.82;1.42;;;;;;;;;;5090986;28;20035;-68
2023/08/26 10:01:17;;;;;;;4.32;1.10;;;;;;;;;;5090261;28;20020;-68
2023/08/26 10:03:45;;;;;;;6.60;2.17;;;;;;;;;;5088908;28;20024;-67
2023/08/26 10:06:12;;;;;;;5.93;1.38;;;;;;;;;;5089526;28;20150;-67
2023/08/26 10:08:42;;;;;;;4.60;1.30;;;;;;;;;;5072298;28;20756;-68
2023/08/26 10:11:10;;;;;;;5.50;1.60;;;;;;;;;;5089726;28;20024;-68
2023/08/26 10:13:37;;;;;;;6.18;1.80;;;;;;;;;;5090032;28;20289;-69
2023/08/26 10:16:06;;;;;;;4.72;1.45;;;;;;;;;;5089638;28;20382;-69
2023/08/26 10:18:38;;;;;;;4.57;1.53;;;;;;;;;;5071404;28;20473;-69
2023/08/26 10:21:05;;;;;;;8.48;1.83;;;;;;;;;;5089490;28;20482;-69
2023/08/26 10:23:31;;;;;;;9.05;1.80;;;;;;;;;;5089784;28;20016;-69
2023/08/26 10:25:57;;;;;;;5.32;1.33;;;;;;;;;;5090101;28;20032;-67
2023/08/26 10:28:24;;;;;;;4.50;1.23;;;;;;;;;;5089307;28;20034;-68
2023/08/26 10:30:51;;;;;;;5.78;1.00;;;;;;;;;;5089675;28;20028;-68
2023/08/26 10:33:18;;;;;;;5.03;1.20;;;;;;;;;;5089767;28;20081;-69
2023/08/26 10:35:57;;;;;;;9.18;2.72;;;;;;;;;;5089645;28;20024;-69
2023/08/26 10:38:23;;;;;;;7.20;1.52;;;;;;;;;;5089198;28;20477;-68
2023/08/26 10:40:49;;;;;;;5.00;1.38;;;;;;;;;;5089495;28;20032;-68
2023/08/26 10:43:15;;;;;;;7.10;1.58;;;;;;;;;;5089658;28;20063;-68
2023/08/26 10:45:47;;;;;;;4.95;1.27;;;;;;;;;;5089749;28;20044;-69
2023/08/26 10:48:13;;;;;;;9.57;1.73;;;;;;;;;;5089717;28;20036;-69
2023/08/26 10:50:43;;;;;;;5.40;0.95;;;;;;;;;;5089627;28;20032;-68
2023/08/26 10:53:20;;;;;;;4.60;1.05;;;;;;;;;;5089561;28;20071;-68
2023/08/26 10:55:51;;;;;;;3.72;1.20;;;;;;;;;;5089768;28;20028;-68
2023/08/26 10:58:21;;;;;;;2.70;1.00;;;;;;;;;;5089546;28;20032;-68
2023/08/26 11:00:48;;;;;;;5.78;1.02;;;;;;;;;;5089829;28;20017;-67
2023/08/26 11:03:15;;;;;;;5.75;2.25;;;;;;;;;;5071979;28;20088;-68
2023/08/26 11:05:45;;;;;;;3.20;1.27;;;;;;;;;;5088918;28;20071;-69
2023/08/26 11:08:11;;;;;;;3.65;1.75;;;;;;;;;;5070876;28;20398;-68
2023/08/26 11:10:41;;;;;;;5.28;1.88;;;;;;;;;;5071355;28;20489;-68
2023/08/26 11:13:08;;;;;;;3.90;1.10;;;;;;;;;;5088543;28;20455;-67
2023/08/26 11:15:38;;;;;;;3.33;1.23;;;;;;;;;;5089469;28;20031;-69
2023/08/26 11:18:05;;;;;;;4.20;1.25;;;;;;;;;;5088631;28;20024;-68
2023/08/26 11:20:31;;;;;;;2.33;0.90;;;;;;;;;;5086325;28;20115;-68
2023/08/26 11:22:58;;;;;;;4.20;0.93;;;;;;;;;;5088196;28;20028;-69
2023/08/26 11:25:25;;;;;;;3.35;1.33;;;;;;;;;;5088389;28;20329;-69
2023/08/26 11:27:52;;;;;;;3.15;1.13;;;;;;;;;;5088261;28;20043;-67
2023/08/26 11:30:18;;;;;;;3.53;1.10;;;;;;;;;;5088395;28;20021;-67
2023/08/26 11:32:49;;;;;;;1.73;0.68;;;;;;;;;;5089666;28;20028;-67
2023/08/26 11:35:15;;;;;;;4.03;1.05;;;;;;;;;;5092765;28;20470;-67
2023/08/26 11:37:42;;;;;;;1.67;0.55;;;;;;;;;;5092762;28;20073;-67
2023/08/26 11:40:08;;;;;;;2.70;0.63;;;;;;;;;;5092586;28;20108;-68
2023/08/26 11:42:35;;;;;;;3.05;0.80;;;;;;;;;;5092342;28;20020;-68
2023/08/26 11:45:01;;;;;;;2.55;0.93;;;;;;;;;;5074276;28;20028;-68
2023/08/26 11:47:27;;;;;;;3.22;0.95;;;;;;;;;;5092964;28;20798;-67
2023/08/26 11:49:57;;;;;;;2.38;0.80;;;;;;;;;;5092977;28;20020;-68
2023/08/26 11:52:31;;;;;;;2.90;0.70;;;;;;;;;;5092869;28;20024;-67
2023/08/26 11:54:57;;;;;;;2.58;1.02;;;;;;;;;;5092091;28;20032;-68
2023/08/26 11:57:23;;;;;;;4.65;0.98;;;;;;;;;;5093079;28;20024;-67
2023/08/26 11:59:50;;;;;;;3.42;1.20;;;;;;;;;;5092475;28;20378;-69
2023/08/26 12:02:24;;;;;;;3.58;0.70;;;;;;;;;;5092953;28;20030;-67
2023/08/26 12:04:57;;;;;;;2.83;0.82;;;;;;;;;;5092344;28;20036;-67
2023/08/26 12:07:23;;;;;;;1.88;0.63;;;;;;;;;;5091665;28;20052;-67
2023/08/26 12:09:49;;;;;;;3.17;0.60;;;;;;;;;;5092139;28;20036;-67
2023/08/26 12:12:25;;;;;;;2.85;1.00;;;;;;;;;;5091989;28;20052;-68
2023/08/26 12:14:51;;;;;;;2.63;0.70;;;;;;;;;;5092394;28;20023;-67
2023/08/26 12:17:17;;;;;;;2.65;0.80;;;;;;;;;;5092061;28;20036;-67
2023/08/26 12:19:44;;;;;;;2.97;0.70;;;;;;;;;;5092814;28;20036;-67
2023/08/26 12:22:11;;;;;;;1.42;0.60;;;;;;;;;;5091719;28;20032;-67
2023/08/26 12:24:39;;;;;;;1.75;0.60;;;;;;;;;;5092187;28;20474;-68
2023/08/26 12:27:09;;;;;;;2.03;0.63;;;;;;;;;;5091948;28;20028;-67
2023/08/26 12:29:35;;;;;;;;;;;;;;;;;;5092532;28;20051;-68
2023/08/26 12:32:01;;;;;;;1.92;0.57;;;;;;;;;;5092079;28;20001;-66
2023/08/26 12:34:28;;;;;;;2.33;0.70;;;;;;;;;;5092191;28;20024;-67
2023/08/26 12:36:54;;;;;;;3.08;0.45;;;;;;;;;;5092101;28;20024;-68
2023/08/26 12:39:20;;;;;;;2.95;0.80;;;;;;;;;;5092098;28;20401;-68
2023/08/26 12:41:46;;;;;;;1.00;0.35;;;;;;;;;;5073671;28;20020;-69
2023/08/26 12:44:12;;;;;;;2.22;0.70;;;;;;;;;;5090689;28;20028;-68
2023/08/26 12:46:38;;;;;;;2.90;0.88;;;;;;;;;;5091841;28;20059;-67
2023/08/26 12:49:04;;;;;;;4.10;0.70;;;;;;;;;;5091448;28;20033;-68
2023/08/26 12:51:31;;;;;;;2.22;0.47;;;;;;;;;;5091691;28;20077;-69
2023/08/26 12:53:57;;;;;;;2.42;0.60;;;;;;;;;;5091963;28;20043;-67
2023/08/26 12:56:26;;;;;;;3.13;0.73;;;;;;;;;;5091390;28;20034;-69
2023/08/26 12:58:52;;;;;;;1.90;0.57;;;;;;;;;;5091484;28;20103;-67
2023/08/26 13:01:19;;;;;;;1.48;0.60;;;;;;;;;;5091239;28;20477;-68
2023/08/26 13:03:45;;;;;;;3.90;0.90;;;;;;;;;;5091361;28;20798;-67
2023/08/26 13:06:13;;;;;;;1.75;0.50;;;;;;;;;;5091553;28;20552;-67
2023/08/26 13:08:39;;;;;;;1.48;0.73;;;;;;;;;;5091587;28;20024;-67
2023/08/26 13:11:05;;;;;;;1.85;0.60;;;;;;;;;;5091161;28;20128;-68
2023/08/26 13:13:31;;;;;;;2.45;0.60;;;;;;;;;;5091336;28;20035;-67
2023/08/26 13:15:58;;;;;;;2.97;0.60;;;;;;;;;;5091339;28;20032;-67
2023/08/26 13:18:24;;;;;;;2.08;0.57;;;;;;;;;;5090569;28;20393;-67
2023/08/26 13:20:50;;;;;;;1.83;0.70;;;;;;;;;;5091382;28;20039;-67
2023/08/26 13:23:16;;;;;;;1.85;0.50;;;;;;;;;;5091005;28;20370;-67
2023/08/26 13:25:42;;;;;;;2.45;0.70;;;;;;;;;;5090283;28;20393;-67
2023/08/26 13:28:09;;;;;;;2.05;0.60;;;;;;;;;;5091049;28;20069;-67
2023/08/26 13:30:35;;;;;;;2.20;0.60;;;;;;;;;;5091257;28;20028;-67
2023/08/26 13:33:01;;;;;;;1.42;0.52;;;;;;;;;;5090859;28;20028;-67
2023/08/26 13:35:27;;;;;;;1.73;0.63;;;;;;;;;;5090668;28;20077;-67
2023/08/26 13:37:53;;;;;;;3.83;0.75;;;;;;;;;;5090571;28;20089;-66
2023/08/26 13:40:19;;;;;;;1.33;0.50;;;;;;;;;;5090147;28;20377;-67
2023/08/26 13:42:47;;;;;;;1.63;0.57;;;;;;;;;;5072726;28;20016;-68
2023/08/26 13:45:13;;;;;;;4.20;1.08;;;;;;;;;;5072715;28;20444;-68
2023/08/26 13:47:39;;;;;;;2.45;0.80;;;;;;;;;;5090018;28;20391;-68
2023/08/26 13:50:06;;;;;;;3.10;0.90;;;;;;;;;;5089328;28;20024;-68
2023/08/26 13:52:32;;;;;;;5.10;1.23;;;;;;;;;;5090232;28;20020;-68
2023/08/26 13:54:58;;;;;;;2.42;0.80;;;;;;;;;;5090302;28;20047;-68
2023/08/26 13:57:24;;;;;;;2.03;0.75;;;;;;;;;;5090234;28;20028;-68
2023/08/26 13:59:50;;;;;;;3.25;0.80;;;;;;;;;;5090436;28;20024;-68
2023/08/26 14:02:17;;;;;;;2.17;0.73;;;;;;;;;;5089974;28;20028;-68
2023/08/26 14:04:43;;;;;;;2.30;1.05;;;;;;;;;;5090388;28;20032;-68
2023/08/26 14:07:09;;;;;;;2.83;0.93;;;;;;;;;;5089958;28;20386;-68
2023/08/26 14:09:35;;;;;;;3.05;1.05;;;;;;;;;;5089942;28;20024;-68
2023/08/26 14:12:01;;;;;;;2.13;1.00;;;;;;;;;;5090057;28;20028;-69
2023/08/26 14:14:27;;;;;;;3.47;1.00;;;;;;;;;;5089865;28;20031;-69
2023/08/26 14:16:53;;;;;;;5.72;1.13;;;;;;;;;;5090132;28;20016;-68
2023/08/26 14:19:19;;;;;;;3.22;0.90;;;;;;;;;;5090104;28;20471;-69
2023/08/26 14:21:45;;;;;;;4.78;1.00;;;;;;;;;;5089926;28;20039;-68
2023/08/26 14:24:11;;;;;;;4.28;1.25;;;;;;;;;;5089581;28;20032;-69
2023/08/26 14:26:37;;;;;;;4.03;0.88;;;;;;;;;;5090169;28;20048;-69
2023/08/26 14:29:03;;;;;;;3.70;1.30;;;;;;;;;;5090261;28;20144;-69
2023/08/26 14:31:29;;;;;;;5.38;1.25;;;;;;;;;;5089845;28;20024;-69
2023/08/26 14:33:55;;;;;;;6.25;1.17;;;;;;;;;;5089416;28;20035;-68